Time;durP1;ratioP1;P1;durP2;ratioP2;P2;SDS_P1;SDS_P2;PMS_P1;PMS_P2;Temp;Humidity;BMP_temperature;BMP_pressure;BME280_temperature;BME280_humidity;BME280_pressure;Samples;Min_cycle;Max_cycle;Signal;HPM_P1;HPM_P2
2022/05/09 00:01:13;;;;;;;16.73;12.93;;;11.40;99.90;;;10.87;100.00;98442.75;4980732;28;20078;-73
2022/05/09 00:03:40;;;;;;;15.43;11.63;;;11.40;99.90;;;10.84;100.00;98437.66;4981054;28;20102;-73
2022/05/09 00:06:08;;;;;;;15.48;11.32;;;11.40;99.90;;;10.82;100.00;98435.09;4977902;28;20070;-73
2022/05/09 00:08:34;;;;;;;14.18;12.68;;;11.40;99.90;;;10.76;100.00;98431.81;4977627;28;20123;-72
2022/05/09 00:11:01;;;;;;;15.27;13.38;;;11.30;99.90;;;10.67;100.00;98432.94;4981292;28;20552;-72
2022/05/09 00:13:28;;;;;;;15.23;13.57;;;11.30;99.90;;;10.61;100.00;98436.59;4976617;28;20573;-73
2022/05/09 00:15:55;;;;;;;17.15;13.48;;;11.20;99.90;;;10.59;100.00;98437.53;4980226;28;20101;-73
2022/05/09 00:18:22;;;;;;;15.13;13.15;;;11.20;99.90;;;10.54;100.00;98429.88;4978370;28;20105;-74
2022/05/09 00:20:49;;;;;;;15.25;13.05;;;11.20;99.90;;;10.52;100.00;98428.22;4978879;28;20078;-73
2022/05/09 00:23:16;;;;;;;15.82;12.95;;;11.10;99.90;;;10.56;100.00;98435.00;4980849;28;20177;-73
2022/05/09 00:25:43;;;;;;;14.82;12.82;;;11.10;99.90;;;10.47;100.00;98425.75;4977579;28;20134;-73
2022/05/09 00:28:11;;;;;;;13.18;11.80;;;11.10;99.90;;;10.38;100.00;98434.66;4978120;28;20509;-73
2022/05/09 00:30:38;;;;;;;16.67;12.75;;;11.00;99.90;;;10.36;100.00;98423.44;4982374;28;20078;-73
2022/05/09 00:33:05;;;;;;;16.67;13.82;;;11.00;99.90;;;10.24;100.00;98418.56;4984049;28;20137;-73
2022/05/09 00:35:32;;;;;;;14.30;12.75;;;10.90;99.90;;;10.27;100.00;98418.50;4980031;28;20046;-72
2022/05/09 00:37:59;;;;;;;16.65;13.00;;;10.90;99.90;;;10.33;100.00;98417.50;4983681;28;20046;-74
2022/05/09 00:40:26;;;;;;;17.52;14.38;;;10.90;99.90;;;10.34;100.00;98429.59;4980338;28;20089;-73
2022/05/09 00:42:54;;;;;;;16.15;13.98;;;10.90;99.90;;;10.32;100.00;98426.19;4983360;28;20052;-73
2022/05/09 00:45:25;;;;;;;20.00;13.75;;;10.90;99.90;;;10.35;100.00;98418.28;4985432;28;20042;-73
2022/05/09 00:47:52;;;;;;;16.50;13.68;;;10.90;99.90;;;10.36;100.00;98418.25;4981408;28;20081;-72
2022/05/09 00:50:25;;;;;;;17.25;15.18;;;10.90;99.90;;;10.30;100.00;98423.63;4984761;28;20050;-72
2022/05/09 00:53:01;;;;;;;16.60;14.60;;;10.90;99.90;;;10.29;100.00;98426.28;4982903;28;20131;-73
2022/05/09 00:55:41;;;;;;;15.90;12.98;;;10.90;99.90;;;10.28;100.00;98420.19;4980002;28;20078;-72
2022/05/09 00:58:26;;;;;;;16.83;13.73;;;10.90;99.90;;;10.25;100.00;98421.13;4994748;28;20054;-72
2022/05/09 01:00:56;;;;;;;18.45;14.63;;;10.80;99.90;;;10.19;100.00;98421.28;4983122;28;20125;-73
2022/05/09 01:03:40;;;;;;;17.27;14.50;;;10.80;99.90;;;10.19;100.00;98428.22;4978773;28;20046;-73
2022/05/09 01:06:08;;;;;;;18.42;13.93;;;10.80;99.90;;;10.25;100.00;98421.13;4980437;28;20054;-73
2022/05/09 01:08:35;;;;;;;16.65;13.75;;;10.80;99.90;;;10.27;100.00;98421.09;4981818;28;20051;-72
2022/05/09 01:11:09;;;;;;;20.73;13.65;;;10.80;99.90;;;10.35;100.00;98424.31;4980855;28;20050;-71
2022/05/09 01:13:45;;;;;;;16.38;14.73;;;10.90;99.90;;;10.43;100.00;98421.53;4983945;28;20137;-72
2022/05/09 01:16:16;;;;;;;20.65;14.35;;;10.90;99.90;;;10.54;100.00;98418.66;4980406;28;20085;-73
2022/05/09 01:18:44;;;;;;;21.23;15.50;;;11.00;99.90;;;10.55;100.00;98425.53;4977435;28;20058;-73
2022/05/09 01:21:34;;;;;;;18.90;12.75;;;11.10;99.90;;;10.61;100.00;98426.19;4984203;28;20101;-72
2022/05/09 01:24:04;;;;;;;15.77;13.57;;;11.10;99.90;;;10.70;100.00;98432.00;4979258;28;20568;-73
2022/05/09 01:26:31;;;;;;;17.75;14.13;;;11.20;99.90;;;10.67;100.00;98430.34;4999943;28;20749;-72
2022/05/09 01:29:13;;;;;;;17.80;14.63;;;11.20;99.90;;;10.67;100.00;98427.75;4980808;28;20085;-73
2022/05/09 01:31:42;;;;;;;14.65;13.10;;;11.20;99.90;;;10.80;100.00;98425.66;4984924;28;20054;-73
2022/05/09 01:34:12;;;;;;;15.43;12.13;;;11.30;99.90;;;10.76;100.00;98427.47;4983713;28;20049;-73
2022/05/09 01:36:39;;;;;;;18.30;14.32;;;11.30;99.90;;;10.79;100.00;98426.56;4981176;28;20128;-73
2022/05/09 01:39:12;;;;;;;18.33;14.82;;;11.30;99.90;;;10.70;100.00;98419.88;4965706;28;20451;-73
2022/05/09 01:41:45;;;;;;;19.75;14.35;;;11.30;99.90;;;10.76;99.90;98417.09;4985810;28;20069;-72
2022/05/09 01:44:14;;;;;;;;;;;11.40;99.90;;;10.78;99.75;98422.25;4984508;28;20540;-73
2022/05/09 01:49:34;;;;;;;16.73;12.35;;;11.40;99.90;;;10.79;100.00;98422.22;4983023;28;20489;-73
2022/05/09 01:52:10;;;;;;;15.95;12.60;;;11.40;99.90;;;10.88;100.00;98426.28;4984177;28;20476;-73
2022/05/09 01:54:40;;;;;;;17.27;13.77;;;11.40;99.90;;;10.83;100.00;98420.34;4982951;28;20137;-72
2022/05/09 01:57:08;;;;;;;16.73;12.15;;;11.40;99.90;;;10.76;100.00;98419.69;4993987;28;20051;-72
2022/05/09 01:59:35;;;;;;;13.65;10.45;;;11.40;99.90;;;10.84;100.00;98429.88;4980957;28;20125;-72
2022/05/09 02:02:13;;;;;;;15.52;11.95;;;11.40;99.90;;;10.76;100.00;98424.88;4981975;28;20077;-72
2022/05/09 02:04:41;;;;;;;16.35;12.43;;;11.40;99.90;;;10.73;100.00;98424.97;4980422;28;20049;-72
2022/05/09 02:07:15;;;;;;;13.55;10.88;;;11.30;99.90;;;10.72;100.00;98427.63;4982118;28;20081;-72
2022/05/09 02:09:46;;;;;;;15.93;11.40;;;11.30;99.90;;;10.68;100.00;98421.69;4979977;28;20100;-72
2022/05/09 02:12:15;;;;;;;18.75;12.88;;;11.20;99.90;;;10.67;100.00;98427.75;4981725;28;20125;-72
2022/05/09 02:14:43;;;;;;;17.80;11.35;;;11.20;99.90;;;10.57;100.00;98421.13;4980278;28;20556;-71
2022/05/09 02:17:11;;;;;;;16.60;12.82;;;11.20;99.90;;;10.50;100.00;98432.59;4981261;28;20489;-72
2022/05/09 02:19:41;;;;;;;13.88;10.80;;;11.10;99.90;;;10.44;100.00;98426.66;4980956;28;20166;-72
2022/05/09 02:22:09;;;;;;;17.85;12.40;;;11.10;99.90;;;10.42;100.00;98425.00;4998022;28;20137;-72
2022/05/09 02:24:39;;;;;;;13.70;10.07;;;11.00;99.90;;;10.37;100.00;98424.28;4979850;28;20137;-73
2022/05/09 02:27:09;;;;;;;16.30;10.32;;;11.00;99.90;;;10.36;100.00;98418.25;4981145;28;20809;-73
2022/05/09 02:29:38;;;;;;;13.65;10.57;;;11.00;99.90;;;10.32;100.00;98414.06;4968397;28;20126;-72
2022/05/09 02:32:06;;;;;;;12.40;10.00;;;10.90;99.90;;;10.23;100.00;98416.88;4982432;28;20057;-72
2022/05/09 02:34:33;;;;;;;14.95;9.68;;;10.90;99.90;;;10.24;100.00;98410.78;4982801;28;20069;-71
2022/05/09 02:37:00;;;;;;;11.02;8.82;;;10.80;99.90;;;10.20;100.00;98414.38;4978910;28;20058;-71
2022/05/09 02:39:27;;;;;;;13.15;9.65;;;10.80;99.90;;;10.19;100.00;98410.91;4980891;28;20445;-72
2022/05/09 02:41:57;;;;;;;15.93;11.40;;;10.80;99.90;;;10.10;100.00;98416.34;4983098;28;20513;-72
2022/05/09 02:44:24;;;;;;;13.07;10.27;;;10.70;99.90;;;10.08;100.00;98412.97;4967111;28;20125;-72
2022/05/09 02:46:50;;;;;;;13.48;9.55;;;10.70;99.90;;;10.09;100.00;98416.41;4983701;28;20156;-71
2022/05/09 02:49:19;;;;;;;12.60;9.57;;;10.60;99.90;;;10.07;100.00;98419.03;4982821;28;20054;-71
2022/05/09 02:51:48;;;;;;;15.20;10.07;;;10.60;99.90;;;10.07;100.00;98418.19;4981236;28;20070;-71
2022/05/09 02:54:16;;;;;;;15.38;8.70;;;10.60;99.90;;;9.98;100.00;98414.94;4981462;28;20176;-72
2022/05/09 02:56:43;;;;;;;13.15;8.98;;;10.60;99.90;;;10.04;100.00;98425.16;4981437;28;20068;-72
2022/05/09 02:59:10;;;;;;;15.75;10.00;;;10.60;99.90;;;9.96;100.00;98418.47;4983623;28;20445;-70
2022/05/09 03:01:37;;;;;;;14.25;9.68;;;10.60;99.90;;;9.97;100.00;98415.00;4979692;28;20050;-72
2022/05/09 03:06:49;;;;;;;15.32;10.10;;;10.50;99.90;;;9.78;100.00;98417.19;4981790;28;20096;-72
2022/05/09 03:09:16;;;;;;;13.50;9.52;;;10.50;99.90;;;9.69;100.00;98409.66;4978507;28;20851;-72
2022/05/09 03:11:45;;;;;;;14.05;8.13;;;10.40;99.90;;;9.70;100.00;98401.84;4980354;28;20559;-72
2022/05/09 03:14:12;;;;;;;14.75;9.85;;;10.40;99.90;;;9.73;100.00;98406.94;4982943;28;20061;-73
2022/05/09 03:16:39;;;;;;;16.92;8.48;;;10.30;99.90;;;9.63;100.00;98401.16;4978110;28;20140;-72
2022/05/09 03:19:06;;;;;;;14.10;8.50;;;10.40;99.90;;;9.76;100.00;98400.84;4981441;28;20046;-72
2022/05/09 03:21:33;;;;;;;10.73;7.40;;;10.30;99.90;;;9.76;100.00;98401.72;4982887;28;20101;-72
2022/05/09 03:24:00;;;;;;;10.18;7.65;;;10.30;99.90;;;9.73;100.00;98406.09;4981913;28;20225;-71
2022/05/09 03:26:27;;;;;;;10.32;7.53;;;10.30;99.90;;;9.76;100.00;98404.31;5008415;28;20058;-73
2022/05/09 03:28:54;;;;;;;13.05;7.55;;;10.30;99.90;;;9.68;100.00;98401.03;4975979;28;20150;-72
2022/05/09 03:31:21;;;;;;;9.00;6.68;;;10.30;99.90;;;9.78;100.00;98402.53;4980438;28;20082;-72
2022/05/09 03:33:48;;;;;;;9.13;5.15;;;10.30;99.90;;;9.84;100.00;98401.50;4978492;28;20058;-73
2022/05/09 03:36:15;;;;;;;9.40;5.90;;;10.20;99.90;;;9.86;100.00;98402.31;4980358;28;20046;-72
2022/05/09 03:38:43;;;;;;;11.13;8.23;;;10.20;99.90;;;9.64;100.00;98396.81;4979604;28;20088;-72
2022/05/09 03:41:10;;;;;;;13.07;9.23;;;10.20;99.90;;;9.57;100.00;98405.66;4978748;28;20042;-72
2022/05/09 03:43:37;;;;;;;12.13;9.50;;;10.20;99.90;;;9.51;100.00;98406.66;4977673;28;20134;-71
2022/05/09 03:46:04;;;;;;;11.90;8.77;;;10.10;99.90;;;9.41;100.00;98410.34;4978162;28;20050;-73
2022/05/09 03:48:31;;;;;;;11.50;8.52;;;10.10;99.90;;;9.40;100.00;98412.09;4961492;28;20061;-72
2022/05/09 03:50:58;;;;;;;12.45;8.77;;;10.00;99.90;;;9.39;100.00;98412.97;4977259;28;20082;-72
2022/05/09 03:53:25;;;;;;;14.27;8.93;;;10.00;99.90;;;9.31;100.00;98414.94;4979267;28;20517;-72
2022/05/09 03:55:53;;;;;;;11.30;7.32;;;10.00;99.90;;;9.35;100.00;98413.09;4980084;28;20488;-72
2022/05/09 03:58:20;;;;;;;11.20;7.75;;;10.00;99.90;;;9.36;100.00;98412.22;4978482;28;20769;-72
2022/05/09 04:00:48;;;;;;;10.10;8.48;;;10.00;99.90;;;9.35;100.00;98410.50;4978335;28;20061;-72
2022/05/09 04:03:15;;;;;;;14.55;7.78;;;10.00;99.90;;;9.30;100.00;98410.63;4980407;28;20081;-72
2022/05/09 04:05:43;;;;;;;11.43;8.55;;;10.00;99.90;;;9.14;100.00;98404.94;4979381;28;20050;-73
2022/05/09 04:08:16;;;;;;;11.73;8.93;;;9.90;99.90;;;9.19;100.00;98407.44;4981554;28;20651;-72
2022/05/09 04:10:45;;;;;;;13.48;9.35;;;9.80;99.90;;;9.08;100.00;98405.09;4982845;28;20513;-72
2022/05/09 04:13:14;;;;;;;13.68;9.38;;;9.80;99.90;;;9.03;100.00;98411.25;4985741;28;20061;-73
2022/05/09 04:18:41;;;;;;;10.45;8.68;;;9.70;99.90;;;8.97;100.00;98407.94;4979300;28;20053;-72
2022/05/09 04:21:09;;;;;;;;;;;9.80;99.90;;;9.07;100.00;98410.31;4986554;28;20131;-72
2022/05/09 04:23:38;;;;;;;14.45;8.48;;;9.80;99.90;;;9.06;100.00;98413.81;4981304;28;20108;-72
2022/05/09 04:26:06;;;;;;;11.20;8.55;;;9.80;99.90;;;9.15;100.00;98414.44;4982615;28;20054;-72
2022/05/09 04:28:33;;;;;;;11.65;8.57;;;9.80;99.90;;;9.16;100.00;98415.28;4985770;28;20472;-72
2022/05/09 04:31:00;;;;;;;12.93;9.05;;;9.80;99.90;;;9.24;100.00;98425.44;4984664;28;20054;-73
2022/05/09 04:33:29;;;;;;;11.93;7.60;;;9.90;99.90;;;9.29;100.00;98421.88;4980989;28;20096;-72
2022/05/09 04:35:58;;;;;;;13.80;9.05;;;9.90;99.90;;;9.36;100.00;98427.75;4980885;28;20077;-72
2022/05/09 04:38:26;;;;;;;12.35;8.45;;;10.00;99.90;;;9.41;100.00;98429.34;4982592;28;20508;-73
2022/05/09 04:40:56;;;;;;;10.43;7.43;;;10.00;99.90;;;9.52;100.00;98423.06;4980532;28;20093;-70
2022/05/09 04:43:26;;;;;;;9.23;7.78;;;10.10;99.90;;;9.67;100.00;98429.59;4986220;28;20047;-74
2022/05/09 04:45:54;;;;;;;14.90;8.43;;;10.20;99.90;;;9.75;100.00;98420.72;4997184;28;20161;-71
2022/05/09 04:48:22;;;;;;;7.82;6.43;;;10.20;99.90;;;9.87;100.00;98423.91;4981304;28;20050;-70
2022/05/09 04:50:49;;;;;;;10.95;7.68;;;10.30;99.90;;;9.75;100.00;98425.06;4980923;28;20085;-73
2022/05/09 04:53:17;;;;;;;11.43;8.88;;;10.30;99.90;;;9.79;100.00;98424.94;4986043;28;20086;-73
2022/05/09 04:55:45;;;;;;;11.27;7.75;;;10.40;99.90;;;9.92;100.00;98425.50;4981095;28;20046;-72
2022/05/09 04:58:15;;;;;;;9.15;7.13;;;10.50;99.90;;;10.06;100.00;98427.72;4976467;28;20053;-72
2022/05/09 05:00:46;;;;;;;11.98;8.88;;;10.60;99.90;;;10.09;100.00;98422.44;4982027;28;20105;-73
2022/05/09 05:03:13;;;;;;;10.20;7.82;;;10.70;99.90;;;10.18;100.00;98427.38;4963228;28;20108;-72
2022/05/09 05:05:42;;;;;;;10.52;7.65;;;10.80;99.90;;;10.18;100.00;98427.38;4985755;28;20057;-73
2022/05/09 05:08:14;;;;;;;16.20;9.55;;;10.90;99.90;;;10.17;100.00;98428.28;4980845;28;20132;-74
2022/05/09 05:10:42;;;;;;;12.20;8.32;;;10.90;99.90;;;10.24;100.00;98431.53;4983133;28;20455;-73
2022/05/09 05:13:10;;;;;;;12.88;7.82;;;10.90;99.90;;;10.25;100.00;98434.09;4980647;28;20105;-73
2022/05/09 05:15:37;;;;;;;18.05;8.25;;;11.00;99.90;;;10.27;100.00;98434.91;4982769;28;20058;-73
2022/05/09 05:18:05;;;;;;;12.45;8.07;;;11.00;99.90;;;10.38;100.00;98434.66;4981694;28;20050;-72
2022/05/09 05:20:32;;;;;;;15.50;8.63;;;11.10;99.90;;;10.45;100.00;98430.13;4980132;28;20129;-73
2022/05/09 05:22:58;;;;;;;16.15;8.50;;;11.20;99.90;;;10.54;100.00;98434.22;4980007;28;20098;-72
2022/05/09 05:25:29;;;;;;;14.10;9.15;;;11.30;99.90;;;10.68;100.00;98443.28;4980581;28;20086;-73
2022/05/09 05:27:58;;;;;;;14.95;8.50;;;11.40;99.90;;;10.81;100.00;98443.78;4980489;28;20054;-72
2022/05/09 05:30:25;;;;;;;13.15;8.40;;;11.60;99.90;;;10.99;100.00;98441.53;4979881;28;20097;-72
2022/05/09 05:32:54;;;;;;;15.48;8.75;;;11.70;99.90;;;11.14;100.00;98443.66;4985896;28;20050;-72
2022/05/09 05:35:24;;;;;;;13.32;9.65;;;11.90;99.90;;;11.29;100.00;98444.94;4980652;28;20134;-72
2022/05/09 05:37:51;;;;;;;16.92;8.82;;;12.00;99.90;;;11.44;100.00;98441.00;4979070;28;20073;-72
2022/05/09 05:40:19;;;;;;;12.40;7.13;;;12.10;99.90;;;11.46;100.00;98442.63;4982470;28;20056;-73
2022/05/09 05:42:47;;;;;;;11.40;8.95;;;12.30;99.90;;;11.66;100.00;98439.38;4977128;28;20054;-72
2022/05/09 05:45:18;;;;;;;14.82;9.20;;;12.40;99.90;;;11.72;100.00;98438.31;4977208;28;20421;-72
2022/05/09 05:47:46;;;;;;;11.93;8.20;;;12.60;99.90;;;11.91;100.00;98439.44;4981096;28;20054;-72
2022/05/09 05:50:15;;;;;;;13.98;8.70;;;12.70;99.90;;;11.92;100.00;98443.72;4978483;28;20042;-73
2022/05/09 05:52:42;;;;;;;12.80;7.70;;;12.80;99.90;;;11.90;100.00;98437.72;4979683;28;20038;-72
2022/05/09 05:55:10;;;;;;;12.48;7.47;;;12.90;99.90;;;12.18;100.00;98439.41;4982058;28;20046;-72
2022/05/09 05:57:40;;;;;;;14.60;7.57;;;13.10;99.90;;;12.23;100.00;98447.03;4979622;28;20157;-72
2022/05/09 06:00:21;;;;;;;16.60;8.02;;;13.10;99.90;;;12.22;100.00;98445.34;4979931;28;20058;-72
2022/05/09 06:02:50;;;;;;;14.57;8.00;;;13.20;99.90;;;12.33;100.00;98446.63;4965293;28;20109;-73
2022/05/09 06:05:19;;;;;;;14.73;8.55;;;13.30;99.90;;;12.41;100.00;98448.16;4982221;28;20108;-73
2022/05/09 06:07:52;;;;;;;12.05;6.97;;;13.40;99.90;;;12.58;100.00;98444.91;4994259;28;20077;-72
2022/05/09 06:10:19;;;;;;;14.80;7.32;;;13.50;99.90;;;12.56;100.00;98444.97;4984580;28;20121;-72
2022/05/09 06:12:47;;;;;;;11.57;7.35;;;13.60;99.90;;;12.73;100.00;98440.00;4976867;28;20576;-72
2022/05/09 06:15:25;;;;;;;12.00;7.70;;;13.70;99.90;;;12.97;100.00;98440.78;4982357;28;20097;-72
2022/05/09 06:17:53;;;;;;;12.93;7.25;;;13.90;99.90;;;12.92;100.00;98442.75;4983156;28;20054;-73
2022/05/09 06:20:21;;;;;;;12.95;7.65;;;13.90;99.90;;;13.00;100.00;98444.19;4986525;28;20058;-73
2022/05/09 06:22:48;;;;;;;11.23;6.40;;;14.10;99.90;;;13.16;100.00;98434.91;4979742;28;20264;-73
2022/05/09 06:25:19;;;;;;;8.73;6.80;;;14.20;99.90;;;13.45;100.00;98436.34;4980057;28;20081;-73
2022/05/09 06:27:47;;;;;;;12.75;7.00;;;14.30;99.90;;;13.63;100.00;98437.38;4980261;28;20050;-72
2022/05/09 06:30:17;;;;;;;13.63;7.10;;;14.50;99.90;;;13.63;100.00;98434.75;4983498;28;20134;-73
2022/05/09 06:32:44;;;;;;;12.98;7.75;;;14.50;99.90;;;13.57;100.00;98430.66;4976943;28;20138;-72
2022/05/09 06:35:20;;;;;;;16.23;8.75;;;14.50;99.90;;;13.72;100.00;98423.94;4979540;28;20396;-71
2022/05/09 06:37:56;;;;;;;10.95;8.18;;;14.70;99.90;;;13.88;100.00;98434.56;4979556;28;20432;-72
2022/05/09 06:40:23;;;;;;;12.38;7.93;;;14.80;99.90;;;13.99;100.00;98423.69;4981802;28;20140;-73
2022/05/09 06:42:52;;;;;;;12.55;7.82;;;14.90;99.90;;;14.01;100.00;98425.31;4979623;28;20074;-72
2022/05/09 06:45:19;;;;;;;12.45;7.40;;;15.00;99.90;;;14.07;100.00;98419.00;4981435;28;20124;-72
2022/05/09 06:47:52;;;;;;;12.65;7.50;;;15.00;99.90;;;14.06;100.00;98425.13;4978375;28;20061;-72
2022/05/09 06:50:30;;;;;;;10.80;7.20;;;15.10;99.90;;;14.37;100.00;98429.84;4981870;28;20050;-72
2022/05/09 06:52:59;;;;;;;8.50;7.03;;;15.20;99.90;;;14.35;100.00;98426.47;4976106;28;20108;-72
2022/05/09 06:55:47;;;;;;;11.25;7.30;;;15.40;99.90;;;14.53;100.00;98430.03;4974234;28;20050;-72
2022/05/09 06:58:18;;;;;;;9.50;6.40;;;15.50;99.90;;;14.72;100.00;98427.44;4982366;28;20096;-73
2022/05/09 07:00:46;;;;;;;11.63;7.28;;;15.70;99.90;;;14.82;100.00;98426.13;4980093;28;20049;-73
2022/05/09 07:03:14;;;;;;;15.02;7.57;;;15.80;99.90;;;14.62;100.00;98432.25;4976650;28;20058;-73
2022/05/09 07:05:44;;;;;;;10.45;6.65;;;15.90;99.90;;;14.79;100.00;98428.84;4981180;28;20082;-73
2022/05/09 07:08:12;;;;;;;12.43;7.80;;;15.80;99.90;;;15.02;100.00;98427.78;4967876;28;20066;-72
2022/05/09 07:10:40;;;;;;;13.40;7.70;;;15.90;99.90;;;14.72;100.00;98424.81;4976521;28;20188;-72
2022/05/09 07:13:07;;;;;;;12.25;7.28;;;16.00;99.90;;;14.97;100.00;98424.53;4979183;28;20058;-73
2022/05/09 07:15:35;;;;;;;12.73;7.45;;;15.90;99.90;;;14.96;100.00;98429.81;4982601;28;20563;-71
2022/05/09 07:18:04;;;;;;;13.15;7.10;;;16.10;99.90;;;15.15;100.00;98430.66;4979606;28;20134;-73
2022/05/09 07:20:34;;;;;;;11.38;6.57;;;16.20;99.90;;;15.15;100.00;98424.59;4979440;28;20042;-73
2022/05/09 07:23:11;;;;;;;11.88;6.68;;;16.30;99.90;;;15.18;100.00;98424.44;4978118;28;20113;-72
2022/05/09 07:25:39;;;;;;;12.98;7.65;;;16.40;99.90;;;15.31;100.00;98425.56;4979290;28;20086;-73
2022/05/09 07:28:06;;;;;;;12.18;7.95;;;16.40;99.90;;;15.36;100.00;98428.78;4977575;28;20054;-73
2022/05/09 07:30:34;;;;;;;13.27;8.65;;;16.40;99.90;;;15.35;100.00;98434.97;4978549;28;20045;-73
2022/05/09 07:33:02;;;;;;;13.68;8.25;;;;;;;15.52;100.00;98431.50;4981493;28;20433;-73
2022/05/09 07:35:32;;;;;;;12.98;8.65;;;16.50;99.90;;;15.41;100.00;98428.56;4978204;28;20593;-73
2022/05/09 07:37:59;;;;;;;11.93;8.85;;;16.50;99.90;;;15.12;100.00;98433.44;4977566;28;20093;-72
2022/05/09 07:40:32;;;;;;;16.42;9.05;;;16.50;99.90;;;15.34;100.00;98428.00;4980118;28;20612;-73
2022/05/09 07:42:59;;;;;;;10.63;6.63;;;16.40;99.90;;;15.72;100.00;98425.31;4979314;28;20050;-71
2022/05/09 07:45:27;;;;;;;8.07;5.25;;;16.50;99.90;;;15.95;100.00;98418.94;4982045;28;20046;-73
2022/05/09 07:47:54;;;;;;;9.50;6.00;;;16.70;99.90;;;15.98;100.00;98420.53;4981223;28;20084;-72
2022/05/09 07:50:22;;;;;;;11.27;6.22;;;16.90;99.90;;;16.38;100.00;98423.72;4980367;28;20139;-73
2022/05/09 07:52:50;;;;;;;11.38;6.60;;;17.10;99.90;;;16.22;100.00;98416.66;4980129;28;20235;-73
2022/05/09 07:55:17;;;;;;;9.18;5.55;;;17.10;99.90;;;16.45;100.00;98412.00;4979080;28;20062;-73
2022/05/09 07:57:44;;;;;;;8.65;5.97;;;17.20;99.90;;;16.54;100.00;98421.97;4978896;28;20141;-73
2022/05/09 08:00:13;;;;;;;8.77;6.38;;;17.30;99.90;;;16.55;100.00;98423.66;4978220;28;20519;-73
2022/05/09 08:02:40;;;;;;;12.80;5.88;;;17.40;99.90;;;16.77;100.00;98425.97;4976242;28;20792;-72
2022/05/09 08:05:11;;;;;;;9.68;6.03;;;17.50;99.90;;;16.65;100.00;98424.88;4979949;28;20149;-73
2022/05/09 08:07:39;;;;;;;11.60;5.85;;;17.70;99.90;;;16.89;100.00;98422.72;4976379;28;20145;-72
2022/05/09 08:10:10;;;;;;;10.35;6.05;;;17.80;99.90;;;16.83;100.00;98424.81;4976525;28;20747;-73
2022/05/09 08:12:38;;;;;;;12.80;6.68;;;17.90;99.90;;;16.66;100.00;98423.94;4976508;28;20073;-72
2022/05/09 08:15:11;;;;;;;7.30;5.10;;;18.10;99.90;;;16.76;100.00;98426.06;4972941;28;20051;-73
2022/05/09 08:17:39;;;;;;;11.43;5.68;;;18.00;99.90;;;16.87;100.00;98421.94;4976734;28;20058;-73
2022/05/09 08:20:08;;;;;;;10.13;5.80;;;17.90;99.90;;;17.24;100.00;98408.56;4979209;28;20042;-73
2022/05/09 08:22:37;;;;;;;9.23;5.60;;;17.90;99.90;;;17.32;100.00;98416.88;4979310;28;20125;-73
2022/05/09 08:25:06;;;;;;;9.38;5.55;;;18.20;99.90;;;17.62;100.00;98416.03;4979098;28;20070;-73
2022/05/09 08:27:34;;;;;;;10.00;4.68;;;18.40;99.90;;;17.90;100.00;98413.53;4976686;28;20043;-73
2022/05/09 08:30:03;;;;;;;8.52;5.22;;;18.60;99.90;;;18.19;100.00;98410.94;4978959;28;20077;-72
2022/05/09 08:32:31;;;;;;;6.38;4.88;;;18.90;99.90;;;18.24;100.00;98414.13;4981181;28;20225;-73
2022/05/09 08:34:58;;;;;;;14.52;4.97;;;19.10;99.90;;;18.22;100.00;98405.47;4976507;28;20054;-73
2022/05/09 08:37:25;;;;;;;12.05;5.22;;;19.20;99.90;;;18.22;100.00;98407.28;4978554;28;20047;-73
2022/05/09 08:39:52;;;;;;;8.30;5.20;;;19.30;99.90;;;18.51;100.00;98408.97;4977895;28;20050;-73
2022/05/09 08:42:30;;;;;;;6.57;4.82;;;;;;;19.09;100.00;98401.00;4978052;28;21730;-72
2022/05/09 08:45:07;;;;;;;10.95;5.72;;;19.80;99.90;;;18.91;100.00;98395.16;4977700;28;20058;-73
2022/05/09 08:47:54;;;;;;;9.65;5.22;;;19.90;99.90;;;19.11;100.00;98404.38;4977760;28;20050;-73
2022/05/09 08:50:57;;;;;;;10.98;5.43;;;20.20;99.90;;;19.10;100.00;98407.97;4985422;28;20042;-72
2022/05/09 08:53:26;;;;;;;8.85;4.43;;;20.40;99.90;;;19.84;100.00;98401.38;4970689;28;20496;-72
2022/05/09 08:55:57;;;;;;;8.32;3.95;;;20.70;99.90;;;20.44;100.00;98402.56;4994435;28;20082;-72
2022/05/09 08:58:57;;;;;;;9.73;4.47;;;21.00;99.90;;;20.10;100.00;98404.03;4980659;28;20432;-71
2022/05/09 09:01:44;;;;;;;10.65;4.30;;;21.20;99.90;;;20.48;100.00;98398.72;5015115;28;20050;-72
2022/05/09 09:04:33;;;;;;;6.63;3.70;;;21.20;99.90;;;21.47;100.00;98384.66;4982840;28;20129;-73
2022/05/09 09:07:23;;;;;;;10.43;3.47;;;21.50;99.90;;;21.58;100.00;98397.06;4997045;28;20325;-72
2022/05/09 09:10:08;;;;;;;5.85;3.17;;;21.70;99.90;;;22.15;100.00;98388.31;4978689;28;20058;-73
2022/05/09 09:13:03;;;;;;;10.10;4.40;;;22.10;99.90;;;22.01;100.00;98392.03;4981664;28;20057;-72
2022/05/09 09:16:02;;;;;;;8.65;4.05;;;22.20;99.90;;;22.10;100.00;98388.69;4965951;28;20133;-72
2022/05/09 09:19:16;;;;;;;6.25;3.30;;;22.40;99.90;;;22.78;100.00;98386.03;4978498;28;20057;-72
2022/05/09 09:22:30;;;;;;;7.45;3.13;;;22.70;99.90;;;22.26;100.00;98374.28;4982216;28;20459;-72
2022/05/09 09:25:56;;;;;;;6.53;3.22;;;22.60;99.90;;;22.59;100.00;98377.91;4983791;28;20046;-72
2022/05/09 09:28:51;;;;;;;6.45;3.97;;;22.80;99.90;;;23.61;100.00;98381.16;4964706;28;20137;-72
2022/05/09 09:31:31;;;;;;;7.10;3.45;;;23.00;99.90;;;23.39;100.00;98388.22;4982377;28;20160;-73
2022/05/09 09:34:06;;;;;;;6.93;3.60;;;23.10;99.90;;;23.42;100.00;98379.16;4979701;28;20129;-72
2022/05/09 09:36:45;;;;;;;6.75;3.55;;;23.20;99.90;;;23.02;100.00;98380.63;4979998;28;20123;-72
2022/05/09 09:39:19;;;;;;;9.18;2.80;;;23.50;99.90;;;23.58;100.00;98377.78;4977475;28;20114;-72
2022/05/09 09:41:48;;;;;;;7.57;3.40;;;23.70;99.90;;;24.06;100.00;98380.91;4980500;28;20369;-72
2022/05/09 09:44:24;;;;;;;8.30;3.70;;;23.80;99.90;;;23.29;100.00;98374.06;4980635;28;20184;-71
2022/05/09 09:47:06;;;;;;;10.15;3.25;;;23.40;99.90;;;23.04;100.00;98375.22;4983603;28;20042;-72
2022/05/09 09:49:40;;;;;;;7.75;3.05;;;23.30;99.90;;;24.00;100.00;98375.16;4981865;28;20062;-71
2022/05/09 09:52:25;;;;;;;11.18;3.72;;;23.80;99.90;;;23.87;100.00;98376.34;4984397;28;20426;-72
2022/05/09 09:55:01;;;;;;;6.50;3.28;;;23.60;99.90;;;23.69;100.00;98374.22;4983928;28;20056;-72
2022/05/09 09:57:36;;;;;;;6.72;3.03;;;23.90;99.70;;;24.42;100.00;98379.56;4981040;28;20050;-73
2022/05/09 10:00:25;;;;;;;8.60;3.63;;;24.00;99.60;;;24.14;100.00;98376.63;4979779;28;20042;-73
2022/05/09 10:02:55;;;;;;;4.53;2.50;;;24.10;98.50;;;25.11;100.00;98359.38;4979192;28;20058;-73
2022/05/09 10:05:37;;;;;;;5.22;2.42;;;24.30;98.80;;;25.14;100.00;98372.41;4979535;28;20047;-73
2022/05/09 10:08:37;;;;;;;7.97;2.97;;;24.60;98.50;;;24.68;100.00;98371.16;4981517;28;20117;-72
2022/05/09 10:11:24;;;;;;;8.98;2.95;;;24.50;98.30;;;24.18;100.00;98377.22;4982172;28;20133;-73
2022/05/09 10:13:58;;;;;;;7.10;2.65;;;24.30;96.00;;;24.20;100.00;98373.47;4967731;28;20130;-73
2022/05/09 10:16:27;;;;;;;5.35;2.25;;;24.40;95.30;;;24.81;100.00;98371.75;4980712;28;20180;-72
2022/05/09 10:18:55;;;;;;;4.63;2.40;;;24.80;95.00;;;26.19;100.00;98359.19;4983661;28;20100;-73
2022/05/09 10:24:47;;;;;;;4.32;2.30;;;25.20;94.60;;;26.53;100.00;98353.31;4980657;28;20128;-73
2022/05/09 10:27:31;;;;;;;12.48;2.38;;;25.10;95.60;;;25.65;100.00;98350.03;4981045;28;20539;-73
2022/05/09 10:30:30;;;;;;;7.22;2.67;;;25.30;94.10;;;25.08;100.00;98349.03;4977593;28;20400;-73
2022/05/09 10:33:02;;;;;;;4.75;2.30;;;25.40;93.70;;;26.12;100.00;98349.28;4995147;28;20154;-73
2022/05/09 10:35:42;;;;;;;;;;;25.40;93.20;;;25.39;100.00;98342.66;4981529;28;20054;-73
2022/05/09 10:38:20;;;;;;;3.45;1.98;;;25.30;93.20;;;24.43;100.00;98350.25;4980054;28;19933;-73